createdAt,value
2022-08-19T00:04:53.627Z,101239.75
2022-08-19T00:14:58.101Z,101223.50
2022-08-19T00:25:02.182Z,101217.66
2022-08-19T00:35:07.789Z,101222.97
2022-08-19T00:45:14.373Z,101232.75
2022-08-19T00:55:21.402Z,101237.75
2022-08-19T01:05:29.657Z,101230.72
2022-08-19T01:15:36.496Z,101239.69
2022-08-19T01:25:46.302Z,101225.84
2022-08-19T01:35:51.400Z,101231.06
2022-08-19T01:45:55.719Z,101231.09
2022-08-19T01:55:59.083Z,101232.03
2022-08-19T02:06:06.208Z,101229.63
2022-08-19T02:16:09.122Z,101243.69
2022-08-19T02:26:14.486Z,101246.47
2022-08-19T02:36:20.806Z,101260.59
2022-08-19T02:46:28.151Z,101260.69
2022-08-19T02:56:31.820Z,101267.00
2022-08-19T03:06:38.453Z,101261.28
2022-08-19T03:16:44.449Z,101265.09
2022-08-19T03:26:52.238Z,101264.34
2022-08-19T03:36:56.303Z,101265.28
2022-08-19T03:47:02.029Z,101248.13
2022-08-19T03:57:05.468Z,101249.94
2022-08-19T04:07:11.426Z,101253.50
2022-08-19T04:17:15.058Z,101247.59
2022-08-19T04:27:19.355Z,101254.47
2022-08-19T04:37:22.328Z,101242.31
2022-08-19T04:47:48.124Z,101242.34
2022-08-19T04:57:49.883Z,101263.13
2022-08-19T05:07:54.105Z,101275.25
2022-08-19T05:18:15.501Z,101283.06
2022-08-19T05:28:20.471Z,101300.13
2022-08-19T05:38:23.427Z,101314.50
2022-08-19T05:48:27.777Z,101309.81
2022-08-19T05:58:30.761Z,101318.97
2022-08-19T06:08:36.033Z,101290.00
2022-08-19T06:18:39.422Z,101296.63
2022-08-19T06:28:47.460Z,101286.59
2022-08-19T06:38:50.488Z,101285.19
2022-08-19T06:48:55.881Z,101294.09
2022-08-19T06:58:58.978Z,101290.63
2022-08-19T07:09:03.587Z,101286.25
2022-08-19T07:19:11.857Z,101284.19
2022-08-19T07:29:25.814Z,101303.22
2022-08-19T07:39:34.158Z,101305.03
2022-08-19T07:49:39.566Z,101325.75
2022-08-19T07:59:42.615Z,101337.97
2022-08-19T08:09:49.648Z,101330.50
2022-08-19T08:19:53.393Z,101336.06
2022-08-19T08:29:57.765Z,101348.84
2022-08-19T08:40:01.142Z,101353.16
2022-08-19T08:50:11.516Z,101360.50
2022-08-19T09:00:27.517Z,101365.34
2022-08-19T09:10:44.729Z,101356.50
2022-08-19T09:20:49.015Z,101364.66
2022-08-19T09:30:53.667Z,101371.88
2022-08-19T09:40:57.187Z,101375.97
2022-08-19T09:51:09.043Z,101377.56
2022-08-19T10:01:20.191Z,101376.28
2022-08-19T10:11:27.200Z,101391.66
2022-08-19T10:21:35.266Z,101373.88
2022-08-19T10:32:00.877Z,101370.72
2022-08-19T10:42:07.438Z,101380.41
2022-08-19T10:52:32.421Z,101367.13
2022-08-19T11:02:35.703Z,101355.28
2022-08-19T11:12:47.555Z,101355.69
2022-08-19T11:22:51.075Z,101360.38
2022-08-19T11:32:58.731Z,101345.16
2022-08-19T11:43:02.730Z,101341.63
2022-08-19T11:53:16.718Z,101334.59
2022-08-19T12:03:20.681Z,101331.44
2022-08-19T12:13:25.811Z,101343.81
2022-08-19T12:23:28.837Z,101337.09
2022-08-19T12:33:33.812Z,101330.28
2022-08-19T12:43:38.029Z,101317.47
2022-08-19T12:53:43.124Z,101311.88
2022-08-19T13:03:48.350Z,101314.16
2022-08-19T13:13:57.070Z,101295.66
2022-08-19T13:24:00.303Z,101305.28
2022-08-19T13:34:05.557Z,101293.97
2022-08-19T13:44:09.646Z,101288.94
2022-08-19T13:54:14.470Z,101283.19
2022-08-19T14:04:17.406Z,101278.13
2022-08-19T14:14:22.439Z,101273.16
2022-08-19T14:24:25.500Z,101260.34
2022-08-19T14:34:29.851Z,101248.97
2022-08-19T14:44:34.804Z,101243.56
2022-08-19T14:54:39.997Z,101252.63
2022-08-19T15:04:58.389Z,101254.09
2022-08-19T15:15:03.421Z,101253.00
2022-08-19T15:25:10.047Z,101254.59
2022-08-19T15:35:16.392Z,101261.03
2022-08-19T15:45:23.553Z,101255.25
2022-08-19T15:55:34.826Z,101274.94
2022-08-19T16:05:56.118Z,101277.50
2022-08-19T16:16:00.467Z,101283.03
2022-08-19T16:26:03.708Z,101277.25
2022-08-19T16:36:08.903Z,101290.88
2022-08-19T16:46:13.160Z,101287.97
2022-08-19T16:56:25.554Z,101309.84
2022-08-19T17:06:35.082Z,101334.53
2022-08-19T17:16:39.840Z,101331.78
2022-08-19T17:26:46.051Z,101329.56
2022-08-19T17:36:51.881Z,101329.56
2022-08-19T17:47:04.977Z,101323.69
2022-08-19T17:57:14.102Z,101325.19
2022-08-19T18:07:22.068Z,101323.88
2022-08-19T18:17:30.324Z,101324.97
2022-08-19T18:27:36.367Z,101353.66
2022-08-19T18:37:41.874Z,101370.00
2022-08-19T18:48:02.153Z,101378.25
2022-08-19T18:58:06.948Z,101383.13
2022-08-19T19:08:09.929Z,101390.38
2022-08-19T19:18:14.419Z,101395.97
2022-08-19T19:28:17.433Z,101395.41
2022-08-19T19:38:21.830Z,101408.66
2022-08-19T19:48:25.037Z,101413.91
2022-08-19T19:58:34.866Z,101412.09
2022-08-19T20:08:55.774Z,101418.28
2022-08-19T20:19:02.077Z,101422.81
2022-08-19T20:29:13.245Z,101422.13
2022-08-19T20:39:29.637Z,101430.81
2022-08-19T20:49:33.079Z,101431.75
2022-08-19T20:59:37.732Z,101441.34
2022-08-19T21:09:40.718Z,101426.47
2022-08-19T21:19:45.146Z,101432.69
2022-08-19T21:29:48.553Z,101421.44
2022-08-19T21:39:53.014Z,101424.63
2022-08-19T21:49:55.962Z,101439.97
2022-08-19T22:00:00.676Z,101434.25
2022-08-19T22:10:05.011Z,101446.75
2022-08-19T22:20:12.261Z,101435.41
2022-08-19T22:30:17.599Z,101440.59
2022-08-19T22:40:22.504Z,101437.88
2022-08-19T22:50:25.666Z,101439.44
2022-08-19T23:00:30.841Z,101450.59
2022-08-19T23:10:33.797Z,101466.19
2022-08-19T23:20:40.547Z,101454.91
2022-08-19T23:30:45.706Z,101448.00
2022-08-19T23:40:51.103Z,101436.69
2022-08-19T23:50:54.905Z,101436.69
